• Join FlightAware (Why Join?)
  • Login
  • US Flag 
06:04AM EDT


 

Airport Tracker/Info


-or-


 

Live Flight TrackerFlight Track Log ✈ UAL5862 ✈ 02-May-2013 ✈ KORD - KLAN

Flight Track Log - Related Links

Times and Time Zones

All times are in EDT time to prevent confusion due to time zone crossing. See the UAL5862 flight status page for this flight to view local times or setup timezone preferences in your user account.

Time Position Orientation Groundspeed Altitude Reporting Facility
EDT Latitude Longitude Course Direction KTS MPH feet Rate Location/Type
10:31PM 42.0167 -87.8500 66° East 179 206 3,300  Level Chicago TRACON
10:33PM 42.0812 -87.5888 62° Northeast  Level FlightAware Approximate
10:33PM 42.0294 -87.7175 83° East 227 261 4,900  Level Chicago Center
10:34PM 42.1202 -87.4837 59° Northeast  Level FlightAware Approximate
10:34PM 42.0397 -87.6200 82° East 253 291 7,200  Level Chicago Center
10:35PM 42.1626 -87.3789 66° East  Level FlightAware Approximate
10:35PM 42.0719 -87.5269 65° Northeast 270 311 9,300  Level Chicago Center
10:36PM 42.1990 -87.2698 66° East  Level FlightAware Approximate
10:36PM 42.1222 -87.4153 59° Northeast 285 328 11,500  Level Chicago Center
10:37PM 42.1711 -87.3064 59° Northeast 332 382 12,200 780 Climbing Chicago Center
10:38PM 42.2244 -87.1872 59° Northeast 367 422 13,200 960 Climbing Chicago Center
10:39PM 42.2328 -87.0481 85° East 374 430 14,200 960 Climbing Chicago Center
10:40PM 42.2339 -86.9039 89° East 383 441 15,200 960 Climbing Chicago Center
10:41PM 42.2381 -86.7569 88° East 391 450 16,200 1,020 Climbing Chicago Center
10:42PM 42.2589 -86.5986 80° East 400 460 17,300 900 Climbing Chicago Center
10:43PM 42.2753 -86.4489 82° East 401 461 18,100 780 Climbing Chicago Center
10:44PM 42.2953 -86.2769 81° East 408 470 19,000 420 Climbing Chicago Center
10:45PM 42.3125 -86.1228 81° East 415 478 19,000  Level Chicago Center
10:46PM 42.3603 -85.9819 65° Northeast 415 478 19,000  Level Chicago Center
10:47PM 42.4128 -85.8442 63° Northeast 415 478 19,000 -540 Level Chicago Center
10:48PM 42.4658 -85.7067 62° Northeast 417 480 18,000 -1,500 Descending Chicago Center
10:49PM 42.5175 -85.5733 62° Northeast 406 467 16,000 -2,160 Descending Chicago Center
10:50PM 42.5678 -85.4417 63° Northeast 402 463 13,600 -2,040 Descending Chicago Center
10:51PM 42.6242 -85.2933 63° Northeast 380 437 11,900 -1,440 Descending Chicago Center
10:52PM 42.6644 -85.1869 63° Northeast 329 379 10,700 -1,380 Descending Chicago Center
10:53PM 42.6869 -85.0839 73° East 291 335 9,200 -1,620 Descending Chicago Center
10:54PM 42.7036 -84.9853 77° East 275 316 7,400 -1,620 Descending Chicago Center
10:55PM 42.7222 -84.8911 75° East 264 304 5,900 -1,560 Descending Chicago Center
10:56PM 42.7450 -84.8006 71° East 256 295 4,300 -1,560 Descending Chicago Center